Time;durP1;ratioP1;P1;durP2;ratioP2;P2;SDS_P1;SDS_P2;PMS_P1;PMS_P2;Temp;Humidity;BMP_temperature;BMP_pressure;BME280_temperature;BME280_humidity;BME280_pressure;Samples;Min_cycle;Max_cycle;Signal;HPM_P1;HPM_P2
2022/12/31 05:02:39;;;;;;;1.38;1.38;;;11.20;99.90;;;;;;4888186;29;20252;-65
2022/12/31 05:05:06;;;;;;;0.82;0.82;;;11.20;99.90;;;;;;4893956;29;20212;-65
2022/12/31 05:07:33;;;;;;;1.20;1.20;;;11.30;99.90;;;;;;4893981;29;20728;-67
2022/12/31 05:09:59;;;;;;;1.00;1.00;;;11.30;99.90;;;;;;4893925;29;20477;-65
2022/12/31 05:12:26;;;;;;;1.00;1.00;;;11.20;99.90;;;;;;4897531;29;20981;-66
2022/12/31 05:14:53;;;;;;;0.87;0.87;;;11.20;99.90;;;;;;4889669;29;20485;-66
2022/12/31 05:17:20;;;;;;;1.10;1.10;;;11.20;99.90;;;;;;4900712;29;20473;-66
2022/12/31 05:19:48;;;;;;;0.80;0.80;;;11.20;99.90;;;;;;4893730;29;20814;-66
2022/12/31 05:22:30;;;;;;;0.82;0.82;;;11.20;99.90;;;;;;4894396;29;20854;-66
2022/12/31 05:24:58;;;;;;;0.85;0.85;;;11.20;99.90;;;;;;4899979;29;20220;-66
2022/12/31 05:27:25;;;;;;;0.70;0.70;;;11.20;99.90;;;;;;4893360;29;20231;-66
2022/12/31 05:29:52;;;;;;;0.70;0.70;;;11.10;99.90;;;;;;4899177;29;20485;-66
2022/12/31 05:32:19;;;;;;;0.83;0.83;;;11.20;99.90;;;;;;4898400;29;20507;-66
2022/12/31 05:34:45;;;;;;;1.10;1.10;;;11.10;99.90;;;;;;4906215;29;20475;-66
2022/12/31 05:37:13;;;;;;;0.70;0.70;;;11.10;99.90;;;;;;4892938;29;20757;-66
2022/12/31 05:39:40;;;;;;;0.65;0.65;;;11.10;99.90;;;;;;4899203;29;20208;-66
2022/12/31 05:42:07;;;;;;;0.30;0.30;;;11.10;99.90;;;;;;4903534;29;20326;-66
2022/12/31 05:44:33;;;;;;;0.60;0.60;;;11.10;99.90;;;;;;4902589;29;20222;-66
2022/12/31 05:47:00;;;;;;;0.70;0.70;;;11.10;99.90;;;;;;4893427;29;20251;-66
2022/12/31 05:49:27;;;;;;;0.63;0.63;;;11.10;99.90;;;;;;4908111;29;20209;-66
2022/12/31 05:51:53;;;;;;;0.98;0.98;;;11.10;99.90;;;;;;4896162;29;20228;-66
2022/12/31 05:54:22;;;;;;;1.17;1.13;;;11.10;99.90;;;;;;4892683;29;20223;-66
2022/12/31 05:56:48;;;;;;;1.27;0.77;;;11.00;99.90;;;;;;4895429;29;20212;-66
2022/12/31 05:59:15;;;;;;;0.55;0.55;;;11.00;99.90;;;;;;4896009;29;20491;-66
2022/12/31 06:01:42;;;;;;;0.68;0.68;;;11.00;99.90;;;;;;4894970;29;20656;-67
2022/12/31 06:04:08;;;;;;;0.60;0.60;;;11.10;99.90;;;;;;4897785;29;20221;-66
2022/12/31 06:06:35;;;;;;;0.50;0.50;;;11.00;99.90;;;;;;4902045;29;20207;-66
2022/12/31 06:09:02;;;;;;;0.70;0.70;;;11.00;99.90;;;;;;4907643;29;20213;-66
2022/12/31 06:11:30;;;;;;;0.40;0.40;;;11.00;99.90;;;;;;4893405;29;20228;-67
2022/12/31 06:13:58;;;;;;;0.80;0.80;;;11.00;99.90;;;;;;4898166;29;20278;-67
2022/12/31 06:16:25;;;;;;;0.73;0.50;;;10.90;99.90;;;;;;4901277;29;20210;-66
2022/12/31 06:18:52;;;;;;;0.45;0.45;;;10.90;99.90;;;;;;4902926;29;20227;-66
2022/12/31 06:21:20;;;;;;;0.30;0.30;;;10.90;99.90;;;;;;4897340;29;20225;-67
2022/12/31 06:23:47;;;;;;;0.30;0.30;;;10.90;99.90;;;;;;4894702;29;20210;-67
2022/12/31 06:26:15;;;;;;;0.70;0.70;;;10.90;99.90;;;;;;4897126;29;20243;-67
2022/12/31 06:28:43;;;;;;;0.40;0.40;;;10.90;99.90;;;;;;4896508;29;20274;-66
2022/12/31 06:31:14;;;;;;;0.70;0.70;;;10.90;99.90;;;;;;4904502;29;20229;-66
2022/12/31 06:33:41;;;;;;;0.60;0.60;;;10.90;99.90;;;;;;4897807;29;20689;-66
2022/12/31 06:36:12;;;;;;;0.63;0.63;;;10.90;99.90;;;;;;4892023;29;20221;-66
2022/12/31 06:38:40;;;;;;;0.95;0.95;;;10.90;99.90;;;;;;4906673;29;20210;-67
2022/12/31 06:41:09;;;;;;;0.73;0.60;;;10.80;99.90;;;;;;4903647;29;20230;-67
2022/12/31 06:43:36;;;;;;;0.80;0.80;;;10.80;99.90;;;;;;4895922;29;20237;-67
2022/12/31 06:46:06;;;;;;;0.52;0.35;;;10.80;99.90;;;;;;4893712;29;20473;-66
2022/12/31 06:48:34;;;;;;;0.98;0.95;;;10.80;99.90;;;;;;4892812;29;20237;-67
2022/12/31 06:51:04;;;;;;;0.65;0.50;;;10.80;99.90;;;;;;4894172;29;20243;-67
2022/12/31 06:53:31;;;;;;;0.38;0.38;;;10.80;99.90;;;;;;4896164;29;20208;-66
2022/12/31 06:55:58;;;;;;;1.02;0.88;;;10.80;99.90;;;;;;4894149;29;20223;-66
2022/12/31 06:58:25;;;;;;;2.47;1.35;;;10.80;99.90;;;;;;4896344;29;20215;-67
2022/12/31 07:01:05;;;;;;;0.60;0.60;;;10.80;99.90;;;;;;4893112;29;20251;-66
2022/12/31 07:03:39;;;;;;;1.45;0.93;;;10.80;99.90;;;;;;4890908;29;20212;-66
2022/12/31 07:06:11;;;;;;;0.50;0.50;;;10.80;99.90;;;;;;4893427;29;20211;-66
2022/12/31 07:08:47;;;;;;;0.40;0.40;;;10.70;99.90;;;;;;4909402;29;20231;-67
2022/12/31 07:11:20;;;;;;;0.38;0.38;;;10.70;99.90;;;;;;4896287;29;20232;-67
2022/12/31 07:14:09;;;;;;;0.70;0.70;;;10.70;99.90;;;;;;4902042;29;20206;-67
2022/12/31 07:16:54;;;;;;;0.50;0.50;;;10.70;99.90;;;;;;4892200;29;20212;-66
2022/12/31 07:19:36;;;;;;;0.40;0.40;;;10.70;99.90;;;;;;4894034;29;20661;-66
2022/12/31 07:22:03;;;;;;;0.50;0.50;;;10.70;99.90;;;;;;4892221;29;20240;-66
2022/12/31 07:24:31;;;;;;;0.30;0.30;;;10.70;99.90;;;;;;4896091;29;20318;-66
2022/12/31 07:27:22;;;;;;;0.40;0.40;;;10.70;99.90;;;;;;4893533;29;20358;-67
2022/12/31 07:30:02;;;;;;;0.40;0.40;;;10.70;99.90;;;;;;4874144;29;20231;-67
2022/12/31 07:32:40;;;;;;;0.55;0.55;;;10.70;99.90;;;;;;4898178;29;20234;-67
2022/12/31 07:35:15;;;;;;;0.20;0.20;;;10.70;99.90;;;;;;4890424;29;20229;-67
2022/12/31 07:37:51;;;;;;;0.68;0.68;;;10.70;99.90;;;;;;4895208;29;20247;-67
2022/12/31 07:40:24;;;;;;;0.38;0.38;;;10.70;99.90;;;;;;4892504;29;20243;-66
2022/12/31 07:43:04;;;;;;;0.63;0.63;;;10.70;99.90;;;;;;4885289;29;20239;-67
2022/12/31 07:45:37;;;;;;;0.32;0.32;;;10.70;99.90;;;;;;4890204;29;20684;-67
2022/12/31 07:48:11;;;;;;;0.35;0.35;;;10.70;99.90;;;;;;4896713;29;20230;-66
2022/12/31 07:50:40;;;;;;;0.30;0.30;;;10.70;99.90;;;;;;4896875;29;20240;-67
2022/12/31 07:53:08;;;;;;;1.40;0.82;;;10.70;99.90;;;;;;4901091;29;20215;-67
2022/12/31 07:55:35;;;;;;;0.40;0.40;;;10.70;99.90;;;;;;4894280;29;20479;-66
2022/12/31 07:58:17;;;;;;;0.30;0.30;;;10.70;99.90;;;;;;4895364;29;20473;-66
2022/12/31 08:00:44;;;;;;;2.15;0.40;;;10.70;99.90;;;;;;4894192;29;20619;-66
2022/12/31 08:03:25;;;;;;;0.30;0.30;;;10.70;99.90;;;;;;4902000;29;20212;-67
2022/12/31 08:06:08;;;;;;;1.15;0.52;;;10.70;99.90;;;;;;4902388;29;20286;-67
2022/12/31 08:08:42;;;;;;;0.35;0.35;;;10.70;99.90;;;;;;4885579;29;20237;-67
2022/12/31 08:11:18;;;;;;;0.20;0.20;;;10.70;99.90;;;;;;4888051;29;20230;-66
2022/12/31 08:13:45;;;;;;;0.47;0.47;;;10.70;99.90;;;;;;4889664;29;20216;-67
2022/12/31 08:16:13;;;;;;;0.65;0.65;;;10.70;99.90;;;;;;4889739;29;20223;-66
2022/12/31 08:18:41;;;;;;;1.30;0.25;;;10.70;99.90;;;;;;4885417;29;20209;-66
2022/12/31 08:21:20;;;;;;;0.30;0.30;;;10.70;99.90;;;;;;4896537;29;20244;-66
2022/12/31 08:23:57;;;;;;;0.57;0.50;;;10.70;99.90;;;;;;4888044;29;20221;-66
2022/12/31 08:26:34;;;;;;;0.57;0.57;;;10.70;99.90;;;;;;4891074;29;20208;-66
2022/12/31 08:29:13;;;;;;;0.20;0.20;;;10.70;99.90;;;;;;4898666;29;20217;-66
2022/12/31 08:31:48;;;;;;;0.50;0.50;;;10.70;99.90;;;;;;4884672;29;20232;-66
2022/12/31 08:34:22;;;;;;;0.40;0.40;;;10.70;99.90;;;;;;4899393;29;20219;-66
2022/12/31 08:36:55;;;;;;;0.30;0.30;;;10.80;99.90;;;;;;4898966;29;20224;-66
2022/12/31 08:39:35;;;;;;;0.40;0.40;;;10.80;99.90;;;;;;4893840;29;20643;-66
2022/12/31 08:42:06;;;;;;;0.40;0.22;;;10.80;99.90;;;;;;4900788;29;20233;-66
2022/12/31 08:44:39;;;;;;;0.45;0.45;;;10.80;99.90;;;;;;4899606;29;20216;-66
2022/12/31 08:47:16;;;;;;;0.47;0.47;;;10.80;99.90;;;;;;4895165;29;20208;-66
2022/12/31 08:49:44;;;;;;;0.30;0.30;;;10.80;99.90;;;;;;4891675;29;20329;-66
2022/12/31 08:52:19;;;;;;;1.02;1.02;;;10.80;99.90;;;;;;4896185;29;20240;-66
2022/12/31 08:54:47;;;;;;;0.50;0.50;;;10.90;99.90;;;;;;4888515;29;20205;-66
2022/12/31 08:57:23;;;;;;;8.13;3.97;;;10.90;99.90;;;;;;4894895;29;20663;-66
2022/12/31 09:00:02;;;;;;;5.90;4.53;;;10.90;99.90;;;;;;4901391;29;20576;-66
2022/12/31 09:03:11;;;;;;;4.53;1.58;;;10.90;99.90;;;;;;4897083;29;20729;-66
2022/12/31 09:05:52;;;;;;;3.47;1.88;;;10.90;99.90;;;;;;4890721;29;20216;-66
2022/12/31 09:08:29;;;;;;;16.35;10.38;;;10.90;99.90;;;;;;4908222;29;20217;-66
2022/12/31 09:11:00;;;;;;;2.00;1.90;;;11.00;99.90;;;;;;4889653;29;20237;-66
2022/12/31 09:13:38;;;;;;;2.05;1.80;;;11.00;99.90;;;;;;4889289;29;20662;-66
2022/12/31 09:16:14;;;;;;;50.88;27.05;;;11.00;99.90;;;;;;4897479;29;20205;-66
2022/12/31 09:18:43;;;;;;;4.15;3.75;;;11.00;99.90;;;;;;4902254;29;20210;-66
2022/12/31 09:21:11;;;;;;;3.90;3.55;;;11.00;99.90;;;;;;4899124;29;20259;-67
2022/12/31 09:23:40;;;;;;;1.13;1.13;;;11.00;99.90;;;;;;4896988;29;20214;-66
2022/12/31 09:26:17;;;;;;;1.00;1.00;;;11.10;99.90;;;;;;4893658;29;20212;-67
2022/12/31 09:28:50;;;;;;;0.95;0.95;;;11.10;99.90;;;;;;4892490;29;20237;-66
2022/12/31 09:31:22;;;;;;;0.73;0.73;;;11.10;99.90;;;;;;4901181;29;20246;-66
2022/12/31 09:33:53;;;;;;;1.07;1.07;;;11.20;99.90;;;;;;4900309;29;20728;-68
2022/12/31 09:36:24;;;;;;;5.32;4.10;;;11.20;99.90;;;;;;4897376;29;20958;-66
2022/12/31 09:39:00;;;;;;;2.83;1.60;;;11.20;99.90;;;;;;4898736;29;20553;-66
2022/12/31 09:42:07;;;;;;;0.57;0.57;;;11.20;99.90;;;;;;4908012;29;20701;-66
2022/12/31 09:45:13;;;;;;;0.50;0.50;;;11.20;99.90;;;;;;4899922;29;20208;-67
2022/12/31 09:48:09;;;;;;;0.80;0.80;;;11.30;99.90;;;;;;4884150;29;20227;-66
2022/12/31 09:50:51;;;;;;;0.30;0.30;;;11.30;99.90;;;;;;4900126;29;20499;-66
2022/12/31 09:53:42;;;;;;;0.50;0.50;;;11.30;99.90;;;;;;4893892;29;20682;-67
2022/12/31 09:56:20;;;;;;;0.60;0.60;;;11.30;99.90;;;;;;4896504;29;20466;-66
2022/12/31 09:58:58;;;;;;;0.43;0.43;;;11.40;99.90;;;;;;4886209;29;20469;-66
2022/12/31 10:01:37;;;;;;;0.38;0.38;;;11.40;99.90;;;;;;4885031;29;20517;-67
2022/12/31 10:04:30;;;;;;;2.40;2.03;;;11.40;99.90;;;;;;4903385;29;20645;-67
2022/12/31 10:07:09;;;;;;;0.20;0.20;;;11.50;99.90;;;;;;4886616;29;20469;-67
2022/12/31 10:09:50;;;;;;;0.40;0.40;;;11.50;99.90;;;;;;4895063;29;20485;-66
2022/12/31 10:12:37;;;;;;;0.40;0.40;;;11.50;99.90;;;;;;4899912;29;20504;-66
2022/12/31 10:15:35;;;;;;;0.33;0.33;;;11.50;99.90;;;;;;4896434;29;20484;-65
2022/12/31 10:18:13;;;;;;;0.57;0.57;;;11.50;99.90;;;;;;4875793;29;20470;-65
2022/12/31 10:20:51;;;;;;;0.43;0.43;;;11.50;99.90;;;;;;4898908;29;20232;-65
2022/12/31 10:23:35;;;;;;;0.53;0.53;;;11.60;99.90;;;;;;4895088;29;20482;-65
2022/12/31 10:26:19;;;;;;;0.60;0.60;;;11.60;99.90;;;;;;4902190;29;20573;-66
2022/12/31 10:28:53;;;;;;;3.60;2.00;;;11.60;99.90;;;;;;4901410;29;20516;-66
2022/12/31 10:31:38;;;;;;;0.80;0.80;;;11.70;99.90;;;;;;4908626;29;20488;-66
2022/12/31 10:34:14;;;;;;;1.63;1.60;;;11.70;99.90;;;;;;4890647;29;20485;-66
2022/12/31 10:36:53;;;;;;;1.13;1.13;;;11.70;99.90;;;;;;4903156;29;20558;-65
2022/12/31 10:39:29;;;;;;;0.50;0.50;;;11.80;99.90;;;;;;4897408;29;20793;-65
2022/12/31 10:42:30;;;;;;;1.13;1.13;;;11.80;99.90;;;;;;4899120;29;20501;-66
2022/12/31 10:45:37;;;;;;;2.37;2.27;;;11.90;99.90;;;;;;4886327;29;20468;-66
2022/12/31 10:48:39;;;;;;;0.60;0.60;;;12.00;99.90;;;;;;4908190;29;20575;-66
2022/12/31 10:51:36;;;;;;;0.67;0.67;;;12.10;99.90;;;;;;4887139;29;20587;-66
2022/12/31 10:54:21;;;;;;;0.87;0.87;;;12.10;99.90;;;;;;4869781;29;20573;-66
2022/12/31 10:57:26;;;;;;;1.90;0.90;;;12.10;99.90;;;;;;4887351;29;20612;-66
2022/12/31 11:00:08;;;;;;;0.40;0.40;;;12.20;99.90;;;;;;4876571;29;20845;-66
2022/12/31 11:03:29;;;;;;;0.40;0.30;;;12.30;99.90;;;;;;4898848;29;20535;-66
2022/12/31 11:06:26;;;;;;;1.70;0.97;;;12.30;99.90;;;;;;4887882;29;20479;-66
2022/12/31 11:09:29;;;;;;;1.40;1.40;;;12.40;99.90;;;;;;4890897;29;21308;-66
2022/12/31 11:12:04;;;;;;;2.30;1.03;;;12.40;99.90;;;;;;4876305;29;20498;-65
2022/12/31 11:14:52;;;;;;;1.40;1.40;;;12.40;99.90;;;;;;4885086;29;20481;-66
2022/12/31 11:17:28;;;;;;;2.10;0.60;;;12.50;99.90;;;;;;4884999;29;20466;-66
2022/12/31 11:20:24;;;;;;;0.60;0.60;;;12.50;99.90;;;;;;4894316;29;20493;-66
2022/12/31 11:23:01;;;;;;;1.20;1.20;;;12.60;99.90;;;;;;4877288;29;20558;-66
2022/12/31 11:25:33;;;;;;;0.63;0.63;;;12.70;99.90;;;;;;4880016;29;20839;-66
2022/12/31 11:28:17;;;;;;;0.63;0.63;;;12.70;99.90;;;;;;4893890;29;20972;-66
2022/12/31 11:30:58;;;;;;;0.40;0.40;;;12.80;99.90;;;;;;4897844;29;20498;-66
2022/12/31 11:33:40;;;;;;;3.23;0.47;;;12.80;99.90;;;;;;4893296;29;20476;-66
2022/12/31 11:36:17;;;;;;;0.40;0.40;;;12.80;99.90;;;;;;4901212;29;20467;-66
2022/12/31 11:38:51;;;;;;;0.43;0.43;;;12.80;99.90;;;;;;4898333;29;20474;-66
2022/12/31 11:41:25;;;;;;;0.50;0.50;;;12.80;99.90;;;;;;4910787;29;20489;-66
2022/12/31 11:44:00;;;;;;;0.30;0.30;;;12.80;99.90;;;;;;4900265;29;20527;-67
2022/12/31 11:46:50;;;;;;;0.63;0.63;;;12.90;99.90;;;;;;4888882;29;20493;-68
2022/12/31 11:49:32;;;;;;;0.63;0.63;;;12.90;99.90;;;;;;4895117;29;20493;-66
2022/12/31 11:52:14;;;;;;;0.50;0.50;;;12.90;99.90;;;;;;4894327;29;20867;-67
2022/12/31 11:55:03;;;;;;;0.60;0.60;;;12.90;99.90;;;;;;4883700;29;20481;-66
2022/12/31 11:57:34;;;;;;;0.67;0.67;;;12.90;99.90;;;;;;4885206;29;20476;-66
2022/12/31 12:00:04;;;;;;;0.53;0.53;;;12.90;99.90;;;;;;4887736;29;20481;-66
2022/12/31 12:02:35;;;;;;;0.30;0.30;;;12.90;99.90;;;;;;4888810;29;20510;-66
2022/12/31 12:05:06;;;;;;;0.70;0.70;;;12.90;99.90;;;;;;4901731;29;20490;-67
2022/12/31 12:07:34;;;;;;;0.30;0.30;;;12.90;99.90;;;;;;4888436;29;20478;-66
2022/12/31 12:10:04;;;;;;;0.30;0.30;;;12.90;99.90;;;;;;4894382;29;20498;-66
2022/12/31 12:12:39;;;;;;;0.40;0.40;;;12.90;99.90;;;;;;4888169;29;20497;-66
2022/12/31 12:15:09;;;;;;;0.20;0.20;;;12.90;99.90;;;;;;4896170;29;20477;-67
2022/12/31 12:17:38;;;;;;;0.33;0.33;;;12.90;99.90;;;;;;4892619;29;20476;-67
2022/12/31 12:20:15;;;;;;;2.93;0.50;;;12.90;99.90;;;;;;4913925;29;20473;-67
2022/12/31 12:22:50;;;;;;;0.30;0.30;;;12.90;99.90;;;;;;4894463;29;20469;-67
2022/12/31 12:25:21;;;;;;;1.13;1.13;;;12.90;99.90;;;;;;4906208;29;20567;-66
2022/12/31 12:27:48;;;;;;;8.07;1.77;;;12.90;99.90;;;;;;4890154;29;20858;-67
2022/12/31 12:30:20;;;;;;;1.63;1.53;;;12.90;99.90;;;;;;4904536;29;20858;-67
2022/12/31 12:32:53;;;;;;;1.43;1.33;;;12.90;99.90;;;;;;4906497;29;20475;-67
2022/12/31 12:35:25;;;;;;;1.20;1.10;;;12.90;99.90;;;;;;4914236;29;20481;-67
2022/12/31 12:38:01;;;;;;;2.10;1.47;;;12.90;99.90;;;;;;4895946;29;20497;-66
2022/12/31 12:40:29;;;;;;;1.60;1.50;;;13.00;99.90;;;;;;4904031;29;20470;-67
2022/12/31 12:42:55;;;;;;;0.70;0.70;;;13.00;99.90;;;;;;4907205;29;20495;-66
2022/12/31 12:45:24;;;;;;;0.60;0.60;;;13.00;99.90;;;;;;4901747;29;20584;-66
2022/12/31 12:47:57;;;;;;;0.87;0.87;;;13.10;99.90;;;;;;4904899;29;20467;-67
2022/12/31 12:50:38;;;;;;;0.60;0.60;;;13.20;99.90;;;;;;4902046;29;20501;-67
2022/12/31 12:53:32;;;;;;;0.67;0.67;;;13.20;99.90;;;;;;4897783;29;20819;-67
2022/12/31 12:56:08;;;;;;;0.60;0.60;;;13.30;99.90;;;;;;4899165;29;20559;-67
2022/12/31 12:58:48;;;;;;;0.50;0.50;;;13.30;99.90;;;;;;4903784;29;20805;-66
2022/12/31 13:01:24;;;;;;;1.37;0.80;;;13.40;99.90;;;;;;4896034;29;20514;-67
2022/12/31 13:04:20;;;;;;;6.90;2.13;;;13.40;99.90;;;;;;4906628;29;20470;-67
2022/12/31 13:06:59;;;;;;;5.83;1.90;;;13.40;99.90;;;;;;4892919;29;20839;-66
2022/12/31 13:09:43;;;;;;;0.63;0.63;;;13.40;99.90;;;;;;4893186;29;20485;-67
2022/12/31 13:12:18;;;;;;;0.50;0.50;;;13.50;99.90;;;;;;4884880;29;20499;-68
2022/12/31 13:14:53;;;;;;;0.60;0.60;;;13.50;99.90;;;;;;4893133;29;20474;-67
2022/12/31 13:17:43;;;;;;;1.53;0.80;;;13.50;99.90;;;;;;4902586;29;20470;-67
2022/12/31 13:20:18;;;;;;;2.10;2.00;;;13.50;99.90;;;;;;4896663;29;20469;-67
2022/12/31 13:22:50;;;;;;;0.97;0.97;;;13.50;99.90;;;;;;4896721;29;20466;-68
2022/12/31 13:25:26;;;;;;;0.67;0.67;;;13.50;99.90;;;;;;4892174;29;20471;-67
2022/12/31 13:27:55;;;;;;;0.40;0.40;;;13.40;99.90;;;;;;4898367;29;20503;-67
2022/12/31 13:30:24;;;;;;;0.60;0.60;;;13.40;99.90;;;;;;4907782;29;20488;-68
2022/12/31 13:32:57;;;;;;;0.80;0.80;;;13.40;99.90;;;;;;4899856;29;20788;-67
2022/12/31 13:35:29;;;;;;;0.93;0.93;;;13.40;99.90;;;;;;4894082;29;20476;-67
2022/12/31 13:38:02;;;;;;;0.80;0.80;;;13.40;99.90;;;;;;4906271;29;20476;-67
2022/12/31 13:40:35;;;;;;;0.80;0.80;;;13.30;99.90;;;;;;4891336;29;20569;-67
2022/12/31 13:43:12;;;;;;;0.50;0.50;;;13.30;99.90;;;;;;4896001;29;20522;-68
2022/12/31 13:45:42;;;;;;;4.00;2.40;;;13.30;99.90;;;;;;4898432;29;20472;-66
2022/12/31 13:48:14;;;;;;;1.73;1.63;;;13.30;99.90;;;;;;4896598;29;20481;-67
2022/12/31 13:50:50;;;;;;;1.07;0.87;;;13.30;99.90;;;;;;4899519;29;20848;-67
2022/12/31 13:53:23;;;;;;;3.70;2.00;;;13.30;99.90;;;;;;4904646;29;20470;-67
2022/12/31 13:55:56;;;;;;;2.23;1.23;;;13.30;99.90;;;;;;4902817;29;20467;-67
2022/12/31 13:58:31;;;;;;;1.70;1.60;;;13.40;99.90;;;;;;4890004;29;20479;-67
2022/12/31 14:01:04;;;;;;;4.00;1.30;;;13.40;99.90;;;;;;4894741;29;20528;-67
2022/12/31 14:03:40;;;;;;;1.03;0.93;;;13.40;99.90;;;;;;4893178;29;20477;-67
2022/12/31 14:06:11;;;;;;;1.23;1.23;;;13.50;99.90;;;;;;4896166;29;20469;-67
2022/12/31 14:08:37;;;;;;;1.27;1.20;;;13.50;99.90;;;;;;4892608;29;20471;-67
2022/12/31 14:11:18;;;;;;;0.93;0.87;;;13.60;99.90;;;;;;4896147;29;20501;-66
2022/12/31 14:13:56;;;;;;;0.93;0.93;;;13.60;99.90;;;;;;4895207;29;20835;-67
2022/12/31 14:16:34;;;;;;;0.73;0.73;;;13.70;99.90;;;;;;4893419;29;20842;-67
2022/12/31 14:19:07;;;;;;;0.73;0.73;;;13.70;99.90;;;;;;4896802;29;20484;-67
2022/12/31 14:21:39;;;;;;;3.97;2.17;;;13.70;99.90;;;;;;4906361;29;20493;-67
2022/12/31 14:24:13;;;;;;;0.57;0.57;;;13.80;99.90;;;;;;4893968;29;20839;-67
2022/12/31 14:26:46;;;;;;;0.90;0.90;;;13.80;99.90;;;;;;4908026;29;20541;-67
2022/12/31 14:29:27;;;;;;;0.50;0.50;;;13.80;99.90;;;;;;4905476;29;20489;-67
2022/12/31 14:32:15;;;;;;;0.70;0.70;;;13.80;99.90;;;;;;4905845;29;20493;-67
2022/12/31 14:34:56;;;;;;;0.87;0.87;;;13.70;99.90;;;;;;4889879;29;20467;-67
2022/12/31 14:37:30;;;;;;;9.83;1.70;;;13.70;99.90;;;;;;4892344;29;20993;-67
2022/12/31 14:40:07;;;;;;;0.77;0.77;;;13.70;99.90;;;;;;4899762;29;20471;-67
2022/12/31 14:42:43;;;;;;;2.97;2.77;;;13.70;99.90;;;;;;4896541;29;20500;-67
2022/12/31 14:45:40;;;;;;;5.40;4.37;;;13.70;99.90;;;;;;4897678;29;20469;-67
2022/12/31 14:48:27;;;;;;;1.37;1.37;;;13.70;99.90;;;;;;4897925;29;20466;-67
2022/12/31 14:50:54;;;;;;;1.40;1.40;;;13.70;99.90;;;;;;4902270;29;20508;-67
2022/12/31 14:53:23;;;;;;;2.00;1.90;;;13.70;99.90;;;;;;4897152;29;20478;-67
2022/12/31 14:55:58;;;;;;;6.97;3.20;;;13.70;99.90;;;;;;4903686;29;20474;-67
2022/12/31 14:58:32;;;;;;;3.57;3.30;;;13.70;99.90;;;;;;4896370;29;20836;-67
2022/12/31 15:01:01;;;;;;;3.20;3.00;;;13.70;99.90;;;;;;4892302;29;20854;-67
2022/12/31 15:03:36;;;;;;;1.90;1.77;;;13.70;99.90;;;;;;4902492;29;20843;-67
2022/12/31 15:06:31;;;;;;;1.70;1.60;;;13.80;99.90;;;;;;4898846;29;20508;-67
2022/12/31 15:09:08;;;;;;;1.07;1.07;;;13.80;99.90;;;;;;4900164;29;20478;-67
2022/12/31 15:11:46;;;;;;;1.00;1.00;;;13.90;99.90;;;;;;4891043;29;20853;-67
2022/12/31 15:14:38;;;;;;;1.20;1.20;;;13.80;99.90;;;;;;4904186;29;20470;-67
2022/12/31 15:17:19;;;;;;;2.27;2.17;;;13.80;99.90;;;;;;4892484;29;20477;-67
2022/12/31 15:20:08;;;;;;;3.50;1.07;;;13.80;99.90;;;;;;4900656;29;20454;-67
2022/12/31 15:22:40;;;;;;;1.87;1.83;;;13.80;99.90;;;;;;4884770;29;20518;-67
2022/12/31 15:25:29;;;;;;;1.43;1.43;;;13.80;99.90;;;;;;4911499;29;20897;-67
2022/12/31 15:27:57;;;;;;;5.73;1.60;;;13.80;99.90;;;;;;4892388;29;20964;-67
2022/12/31 15:30:44;;;;;;;1.30;1.30;;;13.80;99.90;;;;;;4906280;29;21163;-67
2022/12/31 15:33:21;;;;;;;1.80;1.70;;;13.80;99.90;;;;;;4902584;29;20484;-67
2022/12/31 15:35:50;;;;;;;1.37;1.37;;;13.80;99.90;;;;;;4896722;29;20480;-67
2022/12/31 15:38:29;;;;;;;1.27;1.27;;;13.80;99.90;;;;;;4896259;29;20485;-68
2022/12/31 15:40:56;;;;;;;1.90;1.80;;;13.80;99.90;;;;;;4897483;29;20484;-67
2022/12/31 15:43:32;;;;;;;1.13;1.10;;;13.80;99.90;;;;;;4903286;29;20961;-67
2022/12/31 15:46:01;;;;;;;2.93;1.70;;;13.90;99.90;;;;;;4894325;29;20983;-67
2022/12/31 15:48:45;;;;;;;1.60;1.60;;;13.90;99.90;;;;;;4896031;29;20478;-67
2022/12/31 15:51:17;;;;;;;1.70;1.70;;;13.90;99.90;;;;;;4896784;29;20506;-67
2022/12/31 15:53:51;;;;;;;2.07;1.97;;;13.90;99.90;;;;;;4898811;29;20471;-67
2022/12/31 15:56:21;;;;;;;1.57;1.57;;;13.80;99.90;;;;;;4902777;29;20477;-67
2022/12/31 15:58:49;;;;;;;5.70;1.80;;;13.80;99.90;;;;;;4894344;29;20482;-68
2022/12/31 16:01:20;;;;;;;1.93;1.83;;;13.90;99.90;;;;;;4896819;29;20498;-67
2022/12/31 16:03:51;;;;;;;2.30;2.17;;;13.90;99.90;;;;;;4905151;29;20470;-67
2022/12/31 16:06:18;;;;;;;2.30;2.10;;;13.90;99.90;;;;;;4901637;29;20482;-67
2022/12/31 16:08:47;;;;;;;1.50;1.50;;;13.90;99.90;;;;;;4912128;29;20470;-67
2022/12/31 16:11:15;;;;;;;2.03;2.03;;;14.00;99.90;;;;;;4901317;29;20508;-67
2022/12/31 16:13:45;;;;;;;3.80;2.20;;;14.00;99.90;;;;;;4909798;29;20471;-67
2022/12/31 16:16:22;;;;;;;10.03;5.47;;;14.00;99.90;;;;;;4905001;29;20489;-67
2022/12/31 16:18:49;;;;;;;2.67;2.57;;;14.00;99.90;;;;;;4893911;29;20470;-66
2022/12/31 16:21:29;;;;;;;3.20;2.77;;;14.00;99.90;;;;;;4905289;29;20486;-67
2022/12/31 16:23:58;;;;;;;2.23;2.13;;;14.00;99.90;;;;;;4913156;29;20537;-67
2022/12/31 16:26:29;;;;;;;1.57;1.57;;;14.00;99.90;;;;;;4905832;29;20559;-67
2022/12/31 16:28:58;;;;;;;1.53;1.53;;;14.00;99.90;;;;;;4890127;29;20470;-67
2022/12/31 16:31:28;;;;;;;3.37;3.27;;;14.00;99.90;;;;;;4901198;29;20520;-66
2022/12/31 16:34:08;;;;;;;2.37;2.27;;;14.00;99.90;;;;;;4912482;29;20485;-67
2022/12/31 16:36:35;;;;;;;4.30;3.63;;;14.00;99.90;;;;;;4890175;29;20475;-67
2022/12/31 16:39:27;;;;;;;2.17;2.17;;;14.00;99.90;;;;;;4897749;29;20466;-67
2022/12/31 16:42:09;;;;;;;6.57;3.77;;;14.00;99.90;;;;;;4897182;29;20496;-67
2022/12/31 16:44:36;;;;;;;2.93;2.83;;;13.90;99.90;;;;;;4896376;29;20485;-67
2022/12/31 16:47:07;;;;;;;3.07;2.80;;;13.90;99.90;;;;;;4892263;29;20815;-67
2022/12/31 16:49:37;;;;;;;1.57;1.50;;;13.80;99.90;;;;;;4896902;29;20986;-67
2022/12/31 16:52:06;;;;;;;2.87;2.67;;;13.80;99.90;;;;;;4890788;29;20490;-67
2022/12/31 16:54:38;;;;;;;5.50;2.93;;;13.80;99.90;;;;;;4890353;29;20476;-67
2022/12/31 16:57:20;;;;;;;2.40;2.30;;;13.80;99.90;;;;;;4890790;29;20803;-67
2022/12/31 16:59:54;;;;;;;0.93;0.93;;;13.80;99.90;;;;;;4884179;29;20952;-67
2022/12/31 17:02:28;;;;;;;3.90;1.37;;;13.80;99.90;;;;;;4886979;29;20585;-67
2022/12/31 17:05:03;;;;;;;2.67;2.50;;;13.90;99.90;;;;;;4891630;29;20960;-67
2022/12/31 17:07:44;;;;;;;1.70;1.57;;;13.90;99.90;;;;;;4904181;29;20478;-67
2022/12/31 17:10:23;;;;;;;2.20;2.20;;;13.90;99.90;;;;;;4901448;29;20872;-67
2022/12/31 17:12:58;;;;;;;1.40;1.40;;;14.00;99.90;;;;;;4902268;29;20471;-67
2022/12/31 17:15:28;;;;;;;1.37;1.37;;;14.00;99.90;;;;;;4899895;29;21091;-67
2022/12/31 17:18:02;;;;;;;3.43;1.40;;;14.00;99.90;;;;;;4888661;29;20955;-67
2022/12/31 17:20:33;;;;;;;8.97;6.33;;;14.00;99.90;;;;;;4895094;29;20481;-68
2022/12/31 17:23:07;;;;;;;3.70;1.53;;;14.00;99.90;;;;;;4890610;29;20813;-68
2022/12/31 17:25:37;;;;;;;3.03;1.47;;;14.00;99.90;;;;;;4913402;23;20488;-70
2022/12/31 17:28:05;;;;;;;1.30;0.90;;;14.00;99.90;;;;;;4891495;29;20825;-67
2022/12/31 17:30:40;;;;;;;1.80;1.80;;;14.00;99.90;;;;;;4889163;29;20495;-67
2022/12/31 17:33:29;;;;;;;1.67;1.67;;;13.90;99.90;;;;;;4889865;29;20474;-70
2022/12/31 17:36:12;;;;;;;1.70;1.60;;;13.90;99.90;;;;;;4894024;29;20498;-66
2022/12/31 17:38:39;;;;;;;1.60;1.47;;;13.80;99.90;;;;;;4897338;29;20470;-66
2022/12/31 17:41:15;;;;;;;1.67;1.60;;;13.90;99.90;;;;;;4896008;29;20478;-69
2022/12/31 17:43:42;;;;;;;3.70;3.40;;;13.80;99.90;;;;;;4886779;29;20476;-68
2022/12/31 17:46:12;;;;;;;3.30;2.20;;;13.80;99.90;;;;;;4894840;29;20810;-69
2022/12/31 17:48:40;;;;;;;6.03;3.57;;;13.80;99.90;;;;;;4902327;29;22336;-69
2022/12/31 17:51:07;;;;;;;2.47;2.13;;;13.80;99.90;;;;;;4909898;29;20493;-67
2022/12/31 17:53:34;;;;;;;2.40;2.33;;;13.80;99.90;;;;;;4889295;29;20580;-68
2022/12/31 17:56:03;;;;;;;1.83;1.80;;;13.80;99.90;;;;;;4899801;29;20613;-66
2022/12/31 17:58:32;;;;;;;1.80;1.70;;;13.80;99.90;;;;;;4908007;29;20846;-69
2022/12/31 18:01:00;;;;;;;1.80;1.70;;;13.80;99.90;;;;;;4892929;29;20542;-66
2022/12/31 18:03:27;;;;;;;3.27;2.00;;;13.80;99.90;;;;;;4892376;29;20497;-67
2022/12/31 18:05:55;;;;;;;2.53;2.43;;;13.70;99.90;;;;;;4901610;29;20493;-69
2022/12/31 18:08:22;;;;;;;1.47;1.33;;;13.70;99.90;;;;;;4912386;29;20465;-68
2022/12/31 18:10:49;;;;;;;1.40;1.40;;;13.70;99.90;;;;;;4893086;29;20497;-66
2022/12/31 18:13:19;;;;;;;5.93;2.80;;;13.80;99.90;;;;;;4903994;29;20964;-69
2022/12/31 18:15:46;;;;;;;3.87;2.47;;;13.80;99.90;;;;;;4904069;29;20513;-68
2022/12/31 18:18:19;;;;;;;6.10;4.67;;;13.80;99.90;;;;;;4895207;29;20474;-67
2022/12/31 18:20:48;;;;;;;10.83;6.10;;;13.90;99.90;;;;;;4896139;29;20475;-68
2022/12/31 18:23:20;;;;;;;3.50;2.57;;;13.80;99.90;;;;;;4898399;29;20486;-70
2022/12/31 18:25:47;;;;;;;4.40;2.50;;;13.80;99.90;;;;;;4893634;29;20510;-69
2022/12/31 18:28:16;;;;;;;2.37;2.20;;;13.80;99.90;;;;;;4907887;29;20993;-67